Time;durP1;ratioP1;P1;durP2;ratioP2;P2;SDS_P1;SDS_P2;PMS_P1;PMS_P2;Temp;Humidity;BMP_temperature;BMP_pressure;BME280_temperature;BME280_humidity;BME280_pressure;Samples;Min_cycle;Max_cycle;Signal;HPM_P1;HPM_P2
2022/08/01 00:02:18;;;;;;;;;;;17.50;99.90;;;;;;5038917;28;20261;-62
2022/08/01 00:04:44;;;;;;;;;;;17.20;99.90;;;;;;5039628;28;19927;-59
2022/08/01 00:07:09;;;;;;;;;;;17.10;99.90;;;;;;5042357;28;19967;-60
2022/08/01 00:09:35;;;;;;;;;;;17.50;99.90;;;;;;5044759;28;20482;-59
2022/08/01 00:12:00;;;;;;;;;;;17.10;99.90;;;;;;5040724;28;19920;-62
2022/08/01 00:14:26;;;;;;;;;;;17.60;99.90;;;;;;5052240;28;19917;-60
2022/08/01 00:16:51;;;;;;;;;;;17.50;99.90;;;;;;5052117;28;22072;-61
2022/08/01 00:19:17;;;;;;;;;;;17.70;99.90;;;;;;5045372;28;19917;-61
2022/08/01 00:21:42;;;;;;;;;;;17.60;99.90;;;;;;5051692;28;19979;-61
2022/08/01 00:24:08;;;;;;;;;;;17.40;99.90;;;;;;5044499;28;20022;-60
2022/08/01 00:26:33;;;;;;;;;;;17.10;99.90;;;;;;5052618;28;19939;-61
2022/08/01 00:28:59;;;;;;;;;;;16.90;99.90;;;;;;5049928;28;19962;-60
2022/08/01 00:31:24;;;;;;;;;;;17.10;99.90;;;;;;5050753;28;19917;-59
2022/08/01 00:33:50;;;;;;;;;;;17.00;99.90;;;;;;5041006;28;20552;-62
2022/08/01 00:36:15;;;;;;;;;;;17.50;99.90;;;;;;5051407;28;19924;-60
2022/08/01 00:38:41;;;;;;;;;;;17.40;99.90;;;;;;5043178;28;20007;-59
2022/08/01 00:41:06;;;;;;;;;;;17.30;99.90;;;;;;5047327;28;20315;-62
2022/08/01 00:43:31;;;;;;;;;;;17.00;99.90;;;;;;5044241;28;19920;-62
2022/08/01 00:45:57;;;;;;;;;;;17.60;99.90;;;;;;5046178;28;19954;-60
2022/08/01 00:48:22;;;;;;;;;;;17.40;99.90;;;;;;5047534;28;19920;-62
2022/08/01 00:50:48;;;;;;;;;;;17.40;99.90;;;;;;5048758;28;19920;-60
2022/08/01 00:53:13;;;;;;;;;;;17.00;99.90;;;;;;5050359;28;19979;-62
2022/08/01 00:55:39;;;;;;;;;;;17.30;99.90;;;;;;5047628;28;19943;-60
2022/08/01 00:58:05;;;;;;;;;;;17.00;99.90;;;;;;5044981;28;19925;-60
2022/08/01 01:00:30;;;;;;;;;;;17.10;99.90;;;;;;5048259;28;20007;-61
2022/08/01 01:02:56;;;;;;;;;;;17.10;99.90;;;;;;5045658;28;19962;-60
2022/08/01 01:05:21;;;;;;;;;;;16.90;99.90;;;;;;5048518;28;20602;-59
2022/08/01 01:07:49;;;;;;;;;;;17.50;99.90;;;;;;5047321;28;20280;-60
2022/08/01 01:10:17;;;;;;;;;;;17.50;99.90;;;;;;5022397;28;19917;-60
2022/08/01 01:12:46;;;;;;;;;;;17.20;99.90;;;;;;5040884;28;20455;-60
2022/08/01 01:15:18;;;;;;;;;;;17.10;99.90;;;;;;5044195;28;19916;-60
2022/08/01 01:17:48;;;;;;;;;;;17.10;99.90;;;;;;5033032;28;19928;-62
2022/08/01 01:20:14;;;;;;;;;;;17.20;99.90;;;;;;5040726;28;19920;-61
2022/08/01 01:23:06;;;;;;;;;;;16.90;99.90;;;;;;5045319;28;20011;-60
2022/08/01 01:25:46;;;;;;;;;;;16.90;99.90;;;;;;5019173;28;19916;-62
2022/08/01 01:28:16;;;;;;;;;;;17.60;99.90;;;;;;5043939;28;19963;-61
2022/08/01 01:30:44;;;;;;;;;;;17.60;99.90;;;;;;5041439;28;19928;-61
2022/08/01 01:33:10;;;;;;;;;;;17.10;99.90;;;;;;5045163;28;19917;-62
2022/08/01 01:35:38;;;;;;;;;;;17.10;99.90;;;;;;5040536;28;19970;-60
2022/08/01 01:38:22;;;;;;;;;;;17.30;99.90;;;;;;5048429;28;19921;-60
2022/08/01 01:40:50;;;;;;;;;;;16.90;99.90;;;;;;5045525;28;19928;-60
2022/08/01 01:43:16;;;;;;;;;;;17.10;99.90;;;;;;5043445;28;20959;-60
2022/08/01 01:45:43;;;;;;;;;;;17.20;99.90;;;;;;5046324;28;19932;-61
2022/08/01 01:48:09;;;;;;;;;;;17.60;99.90;;;;;;5046881;28;20477;-61
2022/08/01 01:50:35;;;;;;;;;;;16.90;99.90;;;;;;5043950;28;19917;-60
2022/08/01 01:53:02;;;;;;;;;;;17.20;99.90;;;;;;5045984;28;19925;-60
2022/08/01 01:55:28;;;;;;;;;;;16.90;99.90;;;;;;5045320;28;20299;-61
2022/08/01 01:57:55;;;;;;;;;;;17.20;99.90;;;;;;5013503;28;19971;-60
2022/08/01 02:00:21;;;;;;;;;;;17.20;99.90;;;;;;5044664;28;19952;-61
2022/08/01 02:02:47;;;;;;;;;;;17.00;99.90;;;;;;5045335;28;19920;-62
2022/08/01 02:05:13;;;;;;;;;;;17.10;99.90;;;;;;5043266;28;20632;-60
2022/08/01 02:07:39;;;;;;;;;;;16.90;99.90;;;;;;5045525;28;20323;-61
2022/08/01 02:10:05;;;;;;;;;;;16.90;99.90;;;;;;5048299;28;19986;-61
2022/08/01 02:12:32;;;;;;;;;;;17.10;99.90;;;;;;5014035;28;19917;-62
2022/08/01 02:14:58;;;;;;;;;;;17.50;99.90;;;;;;5040477;28;19940;-61
2022/08/01 02:17:24;;;;;;;;;;;16.90;99.90;;;;;;5049203;28;19920;-60
2022/08/01 02:19:50;;;;;;;;;;;17.50;99.90;;;;;;5046942;28;19916;-60
2022/08/01 02:22:19;;;;;;;;;;;17.30;99.90;;;;;;5047092;28;19962;-62
2022/08/01 02:24:50;;;;;;;;;;;17.30;99.90;;;;;;5042720;28;19986;-62
2022/08/01 02:27:20;;;;;;;;;;;17.10;99.90;;;;;;5045631;28;19917;-59
2022/08/01 02:29:58;;;;;;;;;;;17.40;99.90;;;;;;5038526;28;19917;-59
2022/08/01 02:32:25;;;;;;;;;;;16.80;99.90;;;;;;5045991;28;19971;-60
2022/08/01 02:34:51;;;;;;;;;;;16.80;99.90;;;;;;5043321;28;20609;-61
2022/08/01 02:37:18;;;;;;;;;;;16.80;99.90;;;;;;5048610;28;20011;-59
2022/08/01 02:39:45;;;;;;;;;;;17.40;99.90;;;;;;5050239;28;19950;-61
2022/08/01 02:42:12;;;;;;;;;;;17.00;99.90;;;;;;5042694;28;19927;-60
2022/08/01 02:44:39;;;;;;;;;;;17.10;99.90;;;;;;5042374;28;20383;-61
2022/08/01 02:47:05;;;;;;;;;;;17.00;99.90;;;;;;5045263;28;19969;-59
2022/08/01 02:49:36;;;;;;;;;;;17.20;99.90;;;;;;5025507;28;19926;-60
2022/08/01 02:52:04;;;;;;;;;;;17.30;99.90;;;;;;5042851;28;19920;-61
2022/08/01 02:54:30;;;;;;;;;;;17.30;99.90;;;;;;5046793;28;19917;-60
2022/08/01 02:56:56;;;;;;;;;;;17.20;99.90;;;;;;5046037;28;19925;-60
2022/08/01 02:59:25;;;;;;;;;;;16.70;99.90;;;;;;5048951;28;19927;-60
2022/08/01 03:01:53;;;;;;;;;;;17.20;99.90;;;;;;5043761;28;19920;-62
2022/08/01 03:04:19;;;;;;;;;;;16.90;99.90;;;;;;5033788;28;20027;-60
2022/08/01 03:06:46;;;;;;;;;;;17.10;99.90;;;;;;5048357;28;19928;-60
2022/08/01 03:09:12;;;;;;;;;;;16.80;99.90;;;;;;5047084;28;19967;-60
2022/08/01 03:11:39;;;;;;;;;;;17.00;99.90;;;;;;5048776;28;19924;-60
2022/08/01 03:14:07;;;;;;;;;;;16.50;99.90;;;;;;5048164;28;19978;-60
2022/08/01 03:16:33;;;;;;;;;;;16.60;99.90;;;;;;5045682;28;19917;-60
2022/08/01 03:19:00;;;;;;;;;;;16.20;99.90;;;;;;5038409;28;19944;-59
2022/08/01 03:21:27;;;;;;;;;;;16.20;99.90;;;;;;5027035;28;20448;-59
2022/08/01 03:23:56;;;;;;;;;;;17.00;99.90;;;;;;5048067;28;19940;-61
2022/08/01 03:26:27;;;;;;;;;;;16.40;99.90;;;;;;5041274;28;19923;-60
2022/08/01 03:28:55;;;;;;;;;;;16.20;99.90;;;;;;5048232;28;19931;-60
2022/08/01 03:31:20;;;;;;;;;;;16.20;99.90;;;;;;5048799;28;19916;-60
2022/08/01 03:33:46;;;;;;;;;;;16.30;99.90;;;;;;5041338;28;19920;-60
2022/08/01 03:36:12;;;;;;;;;;;17.10;99.90;;;;;;5047379;28;19999;-62
2022/08/01 03:38:39;;;;;;;;;;;16.60;99.90;;;;;;5029978;28;20035;-60
2022/08/01 03:41:08;;;;;;;;;;;16.20;99.90;;;;;;5051139;28;20459;-62
2022/08/01 03:43:37;;;;;;;;;;;16.50;99.90;;;;;;5047971;28;19999;-60
2022/08/01 03:46:07;;;;;;;;;;;17.00;99.90;;;;;;5042664;28;19917;-60
2022/08/01 03:48:36;;;;;;;;;;;16.90;99.90;;;;;;5025694;28;20833;-60
2022/08/01 03:51:02;;;;;;;;;;;16.90;99.90;;;;;;5042834;28;20390;-60
2022/08/01 03:53:29;;;;;;;;;;;16.80;99.90;;;;;;5042265;28;20038;-59
2022/08/01 03:55:55;;;;;;;;;;;16.50;99.90;;;;;;5045366;28;19921;-60
2022/08/01 03:58:21;;;;;;;;;;;16.70;99.90;;;;;;5041697;28;19930;-60
2022/08/01 04:00:47;;;;;;;;;;;16.70;99.90;;;;;;5049698;28;20380;-61
2022/08/01 04:03:13;;;;;;;;;;;16.10;99.90;;;;;;5042803;28;20459;-60
2022/08/01 04:05:42;;;;;;;;;;;16.50;99.90;;;;;;5038263;28;20019;-61
2022/08/01 04:08:08;;;;;;;;;;;16.00;99.90;;;;;;5043059;28;20016;-60
2022/08/01 04:10:33;;;;;;;;;;;16.60;99.90;;;;;;5045271;28;20007;-60
2022/08/01 04:12:59;;;;;;;;;;;16.30;99.90;;;;;;5046579;28;19924;-61
2022/08/01 04:15:24;;;;;;;;;;;16.70;99.90;;;;;;5038798;28;20376;-61
2022/08/01 04:17:50;;;;;;;;;;;16.40;99.90;;;;;;5046124;28;20438;-59
2022/08/01 04:20:15;;;;;;;;;;;16.50;99.90;;;;;;5042568;28;19917;-60
2022/08/01 04:22:41;;;;;;;;;;;16.40;99.90;;;;;;5043223;28;19960;-60
2022/08/01 04:25:12;;;;;;;;;;;16.50;99.90;;;;;;5044519;28;20007;-60
2022/08/01 04:27:39;;;;;;;;;;;16.70;99.90;;;;;;5030880;28;20363;-62
2022/08/01 04:30:05;;;;;;;;;;;16.30;99.90;;;;;;5025151;28;19923;-60
2022/08/01 04:32:35;;;;;;;;;;;16.40;99.90;;;;;;5046132;28;19927;-59
2022/08/01 04:35:04;;;;;;;;;;;16.10;99.90;;;;;;5018526;28;19916;-60
2022/08/01 04:37:30;;;;;;;;;;;16.60;99.90;;;;;;5027237;28;19921;-60
2022/08/01 04:39:56;;;;;;;;;;;16.20;99.90;;;;;;5046075;28;19939;-60
2022/08/01 04:42:22;;;;;;;;;;;16.50;99.90;;;;;;5024302;28;19923;-60
2022/08/01 04:44:47;;;;;;;;;;;16.30;99.90;;;;;;5043742;28;20360;-62
2022/08/01 04:47:13;;;;;;;;;;;16.70;99.90;;;;;;5045801;28;19920;-60
2022/08/01 04:49:39;;;;;;;;;;;16.40;99.90;;;;;;5045755;28;20326;-61
2022/08/01 04:52:06;;;;;;;;;;;16.60;99.90;;;;;;5045672;28;19917;-60
2022/08/01 04:54:33;;;;;;;;;;;16.50;99.90;;;;;;5036289;28;19924;-61
2022/08/01 04:56:59;;;;;;;;;;;16.50;99.90;;;;;;5046718;28;19921;-60
2022/08/01 04:59:41;;;;;;;;;;;16.50;99.90;;;;;;5044255;28;20450;-59
2022/08/01 05:02:07;;;;;;;;;;;16.30;99.90;;;;;;5046286;28;19916;-60
2022/08/01 05:04:33;;;;;;;;;;;16.00;99.90;;;;;;5041607;28;19925;-60
2022/08/01 05:06:58;;;;;;;;;;;16.10;99.90;;;;;;5041099;28;19927;-60
2022/08/01 05:09:24;;;;;;;;;;;16.20;99.90;;;;;;5039344;28;20392;-59
2022/08/01 05:11:50;;;;;;;;;;;16.20;99.90;;;;;;5047274;28;19916;-60
2022/08/01 05:14:16;;;;;;;;;;;16.20;99.90;;;;;;5048527;28;19917;-62
2022/08/01 05:16:41;;;;;;;;;;;16.20;99.90;;;;;;5050811;28;19916;-61
2022/08/01 05:19:07;;;;;;;;;;;15.80;99.90;;;;;;5045569;28;20003;-61
2022/08/01 05:21:33;;;;;;;;;;;16.00;99.90;;;;;;5045921;28;19916;-61
2022/08/01 05:23:59;;;;;;;;;;;15.90;99.90;;;;;;5045931;28;19924;-60
2022/08/01 05:26:24;;;;;;;;;;;15.80;99.90;;;;;;5039083;28;19924;-60
2022/08/01 05:28:50;;;;;;;;;;;15.80;99.90;;;;;;5048066;28;20403;-60
2022/08/01 05:31:15;;;;;;;;;;;16.10;99.90;;;;;;5028995;28;19917;-61
2022/08/01 05:33:41;;;;;;;;;;;15.90;99.90;;;;;;5045733;28;19962;-59
2022/08/01 05:36:06;;;;;;;;;;;16.10;99.90;;;;;;5025978;28;19916;-61
2022/08/01 05:38:32;;;;;;;;;;;16.00;99.90;;;;;;5037347;28;20542;-59
2022/08/01 05:40:57;;;;;;;;;;;15.90;99.90;;;;;;5044696;28;19960;-61
2022/08/01 05:43:22;;;;;;;;;;;15.80;99.90;;;;;;5043124;28;19931;-60
2022/08/01 05:45:48;;;;;;;;;;;15.70;99.90;;;;;;5049531;28;19921;-59
2022/08/01 05:48:13;;;;;;;;;;;15.70;99.90;;;;;;5052226;28;19971;-61
2022/08/01 05:50:39;;;;;;;;;;;15.70;99.90;;;;;;5037871;28;19963;-60
2022/08/01 05:53:05;;;;;;;;;;;15.80;99.90;;;;;;5045232;28;20007;-60
2022/08/01 05:55:30;;;;;;;;;;;16.00;99.90;;;;;;5046535;28;20363;-60
2022/08/01 05:57:56;;;;;;;;;;;15.90;99.90;;;;;;5035382;28;19928;-60
2022/08/01 06:00:21;;;;;;;;;;;15.90;99.90;;;;;;5026266;28;20300;-62
2022/08/01 06:02:47;;;;;;;;;;;15.90;99.90;;;;;;5051912;28;19983;-62
2022/08/01 06:05:12;;;;;;;;;;;16.00;99.90;;;;;;5046675;28;19947;-61
2022/08/01 06:07:39;;;;;;;;;;;15.80;99.90;;;;;;5026558;28;20331;-61
2022/08/01 06:10:05;;;;;;;;;;;15.70;99.90;;;;;;5040289;28;20287;-60
2022/08/01 06:12:32;;;;;;;;;;;16.00;99.90;;;;;;5036562;28;19921;-60
2022/08/01 06:14:58;;;;;;;;;;;15.70;99.90;;;;;;5045379;28;19916;-62
2022/08/01 06:17:23;;;;;;;;;;;15.90;99.90;;;;;;5045516;28;20366;-60
2022/08/01 06:19:48;;;;;;;;;;;16.10;99.90;;;;;;5047399;28;19917;-59
2022/08/01 06:22:14;;;;;;;;;;;15.70;99.90;;;;;;5043286;28;19959;-62
2022/08/01 06:24:39;;;;;;;;;;;15.90;99.90;;;;;;5045651;28;20240;-59
2022/08/01 06:27:05;;;;;;;;;;;15.80;99.90;;;;;;5044546;28;19921;-60
2022/08/01 06:29:31;;;;;;;;;;;16.00;99.90;;;;;;5047226;28;19924;-60
2022/08/01 06:31:57;;;;;;;;;;;16.00;99.90;;;;;;5031313;28;20256;-60
2022/08/01 06:34:22;;;;;;;;;;;15.80;99.90;;;;;;5042934;28;19920;-60
2022/08/01 06:36:48;;;;;;;;;;;15.70;99.90;;;;;;5032291;28;20388;-61
2022/08/01 06:39:13;;;;;;;;;;;15.80;99.90;;;;;;5033807;28;19928;-61
2022/08/01 06:41:41;;;;;;;;;;;15.80;99.90;;;;;;5052729;28;20031;-60
2022/08/01 06:44:07;;;;;;;;;;;15.80;99.90;;;;;;5052163;28;20007;-59
2022/08/01 06:46:32;;;;;;;;;;;16.00;99.90;;;;;;5047417;28;20355;-60
2022/08/01 06:48:58;;;;;;;;;;;15.90;99.90;;;;;;5045638;28;19917;-59
2022/08/01 06:51:23;;;;;;;;;;;16.10;99.90;;;;;;5050967;28;20295;-61
2022/08/01 06:53:49;;;;;;;;;;;16.00;99.90;;;;;;5050595;28;20502;-60
2022/08/01 06:56:14;;;;;;;;;;;16.10;99.90;;;;;;5042702;28;19916;-60
2022/08/01 06:58:39;;;;;;;;;;;16.10;99.90;;;;;;5051414;28;19921;-59
2022/08/01 07:01:08;;;;;;;;;;;16.20;99.90;;;;;;5051069;28;20296;-60
2022/08/01 07:03:34;;;;;;;;;;;16.20;99.90;;;;;;5045549;28;19920;-61
2022/08/01 07:06:00;;;;;;;;;;;16.10;99.90;;;;;;5028177;28;19942;-60
2022/08/01 07:08:25;;;;;;;;;;;16.10;99.90;;;;;;5048293;28;20353;-60
2022/08/01 07:10:50;;;;;;;;;;;16.10;99.90;;;;;;5029828;28;20376;-61
2022/08/01 07:13:20;;;;;;;;;;;16.20;99.90;;;;;;5039432;28;19935;-60
2022/08/01 07:15:46;;;;;;;;;;;16.40;99.90;;;;;;5048389;28;19917;-60
2022/08/01 07:18:11;;;;;;;;;;;16.30;99.90;;;;;;5031247;28;20038;-61
2022/08/01 07:20:37;;;;;;;;;;;16.50;99.90;;;;;;5048682;28;20269;-60
2022/08/01 07:23:03;;;;;;;;;;;16.40;99.90;;;;;;5048206;28;19916;-60
2022/08/01 07:25:28;;;;;;;;;;;16.30;99.90;;;;;;5052845;28;19916;-60
2022/08/01 07:27:54;;;;;;;;;;;16.40;99.90;;;;;;5045674;28;19916;-60
2022/08/01 07:30:19;;;;;;;;;;;16.40;99.90;;;;;;5050862;28;19923;-60
2022/08/01 07:32:45;;;;;;;;;;;16.40;99.90;;;;;;5049321;28;19921;-61
2022/08/01 07:35:10;;;;;;;;;;;16.60;99.90;;;;;;5028148;28;19921;-60
2022/08/01 07:37:36;;;;;;;;;;;16.60;99.90;;;;;;5038861;28;19917;-60
2022/08/01 07:40:04;;;;;;;;;;;16.50;99.90;;;;;;5017691;28;19921;-59
2022/08/01 07:42:29;;;;;;;;;;;16.50;99.90;;;;;;5051794;28;19927;-60
2022/08/01 07:44:55;;;;;;;;;;;16.60;99.90;;;;;;5048592;28;19921;-59
2022/08/01 07:47:24;;;;;;;;;;;16.40;99.90;;;;;;5023035;28;20384;-60
2022/08/01 07:49:50;;;;;;;;;;;16.50;99.90;;;;;;5047032;28;19995;-60
2022/08/01 07:52:16;;;;;;;;;;;16.50;99.90;;;;;;5046411;28;20359;-60
2022/08/01 07:54:41;;;;;;;;;;;16.70;99.90;;;;;;5046579;28;19956;-59
2022/08/01 07:57:07;;;;;;;;;;;16.70;99.90;;;;;;5048485;28;20008;-60
2022/08/01 07:59:32;;;;;;;;;;;16.70;99.90;;;;;;5029972;28;19929;-61
2022/08/01 08:01:58;;;;;;;;;;;16.90;99.90;;;;;;5051014;28;19924;-59
2022/08/01 08:04:24;;;;;;;;;;;16.80;99.90;;;;;;5025865;28;19923;-61
2022/08/01 08:06:49;;;;;;;;;;;17.20;99.90;;;;;;5049128;28;19917;-61
2022/08/01 08:09:15;;;;;;;;;;;17.30;99.90;;;;;;5049492;28;20498;-60
2022/08/01 08:11:42;;;;;;;;;;;17.20;99.90;;;;;;5050472;28;20149;-59
2022/08/01 08:14:07;;;;;;;;;;;17.30;99.90;;;;;;5050125;28;19917;-60
2022/08/01 08:16:33;;;;;;;;;;;17.40;99.90;;;;;;5045979;28;20344;-59
2022/08/01 08:18:58;;;;;;;;;;;17.40;99.90;;;;;;5048486;28;20003;-59
2022/08/01 08:21:24;;;;;;;;;;;17.50;99.90;;;;;;5047054;28;20367;-59
2022/08/01 08:26:34;;;;;;;;;;;17.40;99.90;;;;;;5050139;28;19924;-59
2022/08/01 08:28:59;;;;;;;;;;;17.60;99.90;;;;;;5032520;28;20545;-60
2022/08/01 08:31:25;;;;;;;;;;;17.70;99.90;;;;;;5048925;28;20251;-61
2022/08/01 08:33:50;;;;;;;;;;;17.90;99.90;;;;;;5048269;28;19917;-59
2022/08/01 08:36:16;;;;;;;;;;;18.10;99.90;;;;;;5052974;28;19963;-59
2022/08/01 08:38:41;;;;;;;;;;;18.20;99.90;;;;;;5054973;28;19925;-59
2022/08/01 08:41:07;;;;;;;;;;;18.30;99.90;;;;;;5055136;28;19936;-59
2022/08/01 08:43:32;;;;;;;;;;;18.50;99.90;;;;;;5054062;28;19960;-59
2022/08/01 08:45:58;;;;;;;;;;;18.90;99.90;;;;;;5053506;28;19939;-61
2022/08/01 08:48:24;;;;;;;;;;;19.30;99.90;;;;;;5052230;28;19917;-60
2022/08/01 08:50:50;;;;;;;;;;;19.70;99.90;;;;;;5054371;28;19923;-60
2022/08/01 08:53:16;;;;;;;;;;;20.00;99.90;;;;;;5052883;28;19921;-61
2022/08/01 08:55:42;;;;;;;;;;;20.20;99.90;;;;;;5054473;28;20300;-61
2022/08/01 08:58:17;;;;;;;;;;;20.40;99.90;;;;;;5050631;28;19940;-62
2022/08/01 09:00:42;;;;;;;;;;;20.10;99.90;;;;;;5049109;28;19935;-61
2022/08/01 09:03:08;;;;;;;;;;;20.50;99.90;;;;;;5051088;28;19921;-62
2022/08/01 09:05:33;;;;;;;;;;;21.30;99.90;;;;;;5049024;28;19917;-60
2022/08/01 09:07:59;;;;;;;;;;;22.20;99.90;;;;;;5054983;28;20000;-61
2022/08/01 09:10:24;;;;;;;;;;;23.10;99.90;;;;;;5036834;28;19924;-60
2022/08/01 09:13:04;;;;;;;;;;;23.70;99.90;;;;;;5050374;28;19924;-61
2022/08/01 09:15:43;;;;;;;;;;;24.00;96.60;;;;;;5052233;28;20316;-60
2022/08/01 09:18:24;;;;;;;;;;;24.50;94.40;;;;;;5050979;28;19924;-62
2022/08/01 09:20:50;;;;;;;;;;;24.90;94.70;;;;;;5053041;28;20529;-61
2022/08/01 09:23:32;;;;;;;;;;;25.10;93.10;;;;;;5050522;28;19917;-59
2022/08/01 09:25:57;;;;;;;;;;;25.00;87.40;;;;;;5048165;28;19917;-59
2022/08/01 09:28:27;;;;;;;;;;;25.00;90.70;;;;;;5052235;28;19917;-59
2022/08/01 09:30:52;;;;;;;;;;;25.20;91.20;;;;;;5054383;28;20292;-60
2022/08/01 09:33:18;;;;;;;;;;;25.00;91.30;;;;;;5050160;28;19928;-59
2022/08/01 09:35:45;;;;;;;;;;;25.50;91.40;;;;;;5046540;28;19991;-60
2022/08/01 09:38:17;;;;;;;;;;;25.30;85.60;;;;;;5051864;28;20284;-60
2022/08/01 09:40:47;;;;;;;;;;;24.90;90.30;;;;;;5053769;28;19920;-59
2022/08/01 09:43:13;;;;;;;;;;;24.40;90.50;;;;;;5035108;28;19921;-59
2022/08/01 09:45:38;;;;;;;;;;;24.40;91.90;;;;;;5047585;28;20379;-60
2022/08/01 09:48:08;;;;;;;;;;;24.00;90.10;;;;;;5051388;28;20067;-59
2022/08/01 09:50:43;;;;;;;;;;;23.60;92.80;;;;;;5049814;28;19917;-60
2022/08/01 09:53:09;;;;;;;;;;;23.10;93.20;;;;;;5034958;28;19975;-60
2022/08/01 09:55:35;;;;;;;;;;;22.90;94.40;;;;;;5035451;28;19990;-59
2022/08/01 09:58:00;;;;;;;;;;;23.10;94.10;;;;;;5047169;28;19931;-60
2022/08/01 10:00:27;;;;;;;;;;;23.00;95.60;;;;;;5054115;28;19920;-60
2022/08/01 10:02:52;;;;;;;;;;;23.20;94.70;;;;;;5051961;28;20022;-60
2022/08/01 10:05:29;;;;;;;;;;;23.50;93.10;;;;;;5048397;28;20597;-60
2022/08/01 10:07:59;;;;;;;;;;;24.00;91.40;;;;;;5053442;28;19950;-60
2022/08/01 10:10:24;;;;;;;;;;;24.20;92.40;;;;;;5050383;28;19916;-61
2022/08/01 10:12:51;;;;;;;;;;;24.30;91.80;;;;;;5054146;28;19921;-61
2022/08/01 10:15:17;;;;;;;;;;;24.00;92.80;;;;;;5031319;28;19916;-61
2022/08/01 10:17:56;;;;;;;;;;;23.90;92.00;;;;;;5050533;28;20043;-62
2022/08/01 10:20:26;;;;;;;;;;;24.30;87.00;;;;;;5045836;28;20011;-61
2022/08/01 10:22:53;;;;;;;;;;;25.20;91.60;;;;;;5050359;28;19917;-61
2022/08/01 10:25:20;;;;;;;;;;;25.80;85.60;;;;;;5052091;28;20021;-62
2022/08/01 10:27:48;;;;;;;;;;;26.10;85.00;;;;;;5051877;28;20502;-61
2022/08/01 10:30:14;;;;;;;;;;;26.20;84.10;;;;;;5044591;28;20310;-60
2022/08/01 10:32:42;;;;;;;;;;;26.20;86.70;;;;;;5050008;28;19916;-62
2022/08/01 10:35:08;;;;;;;;;;;26.30;85.80;;;;;;5047391;28;20268;-62
2022/08/01 10:37:35;;;;;;;;;;;25.70;82.00;;;;;;5047882;28;19927;-61
2022/08/01 10:40:00;;;;;;;;;;;25.30;86.70;;;;;;5047575;28;20584;-61
2022/08/01 10:42:27;;;;;;;;;;;25.30;85.10;;;;;;5042733;28;19923;-62
2022/08/01 10:44:53;;;;;;;;;;;25.50;90.20;;;;;;5046492;28;19923;-62
2022/08/01 10:47:23;;;;;;;;;;;25.30;87.10;;;;;;5049438;28;19970;-61
2022/08/01 10:50:09;;;;;;;;;;;24.90;85.70;;;;;;5045259;28;19920;-61
2022/08/01 10:52:34;;;;;;;;;;;24.90;87.90;;;;;;5007524;28;20327;-62
2022/08/01 10:55:04;;;;;;;;;;;24.60;86.90;;;;;;5048858;28;19920;-61
2022/08/01 10:57:42;;;;;;;;;;;24.50;90.20;;;;;;5047022;28;20342;-60
2022/08/01 11:00:08;;;;;;;;;;;24.60;88.50;;;;;;5046079;28;19924;-61
2022/08/01 11:02:34;;;;;;;;;;;24.20;86.70;;;;;;5037273;28;19917;-62
2022/08/01 11:05:06;;;;;;;;;;;24.20;90.00;;;;;;5038842;28;19924;-61
2022/08/01 11:08:07;;;;;;;;;;;24.20;89.40;;;;;;5049988;28;19926;-61
2022/08/01 11:10:33;;;;;;;;;;;24.20;90.50;;;;;;4964386;28;19944;-63
2022/08/01 11:13:00;;;;;;;;;;;23.90;87.00;;;;;;5032425;28;20493;-63
2022/08/01 11:15:27;;;;;;;;;;;23.60;87.20;;;;;;5050541;28;19923;-62
2022/08/01 11:17:53;;;;;;;;;;;23.50;89.00;;;;;;5042436;28;19924;-63
2022/08/01 11:20:20;;;;;;;;;;;23.50;90.10;;;;;;5047108;28;19920;-63
2022/08/01 11:23:06;;;;;;;;;;;23.50;89.00;;;;;;5029083;28;19971;-63
2022/08/01 11:25:38;;;;;;;;;;;23.60;85.00;;;;;;5030569;28;20007;-63
2022/08/01 11:28:15;;;;;;;;;;;23.60;89.70;;;;;;5048081;28;20763;-63
2022/08/01 11:30:41;;;;;;;;;;;23.80;88.70;;;;;;5013885;28;19971;-62
2022/08/01 11:33:07;;;;;;;;;;;23.70;90.20;;;;;;5039762;28;19983;-62
2022/08/01 11:35:32;;;;;;;;;;;23.80;89.10;;;;;;5049193;28;19999;-63
2022/08/01 11:38:18;;;;;;;;;;;23.90;88.20;;;;;;5051552;28;19929;-62
2022/08/01 11:40:43;;;;;;;;;;;24.20;90.00;;;;;;5052715;28;19928;-64
2022/08/01 11:43:12;;;;;;;;;;;24.30;88.50;;;;;;5049708;28;19916;-63
2022/08/01 11:45:48;;;;;;;;;;;24.00;86.90;;;;;;5045281;28;20706;-63
2022/08/01 11:48:23;;;;;;;;;;;24.10;86.60;;;;;;5048113;28;19952;-63
2022/08/01 11:50:50;;;;;;;;;;;24.10;85.10;;;;;;5049165;28;19928;-63
2022/08/01 11:53:16;;;;;;;;;;;24.20;85.90;;;;;;5050537;28;19921;-63
2022/08/01 11:55:48;;;;;;;;;;;24.30;87.20;;;;;;5037115;28;19925;-64
2022/08/01 11:58:14;;;;;;;;;;;24.40;85.60;;;;;;5028941;28;19978;-63
2022/08/01 12:00:40;;;;;;;;;;;24.60;83.20;;;;;;5032688;28;19928;-63
2022/08/01 12:03:06;;;;;;;;;;;24.40;84.70;;;;;;5048014;28;19936;-62
2022/08/01 12:05:33;;;;;;;;;;;24.40;82.70;;;;;;5041080;28;19921;-63
2022/08/01 12:07:59;;;;;;;;;;;24.30;84.80;;;;;;5047687;28;19921;-63
2022/08/01 12:10:26;;;;;;;;;;;24.30;82.70;;;;;;5050164;28;19974;-63
2022/08/01 12:12:57;;;;;;;;;;;24.40;80.30;;;;;;5048875;28;19921;-64
2022/08/01 12:15:24;;;;;;;;;;;24.50;83.50;;;;;;5026448;28;19963;-63
2022/08/01 12:17:50;;;;;;;;;;;24.50;80.30;;;;;;5041901;28;20395;-63
2022/08/01 12:20:19;;;;;;;;;;;24.40;80.90;;;;;;5046937;28;19951;-63
2022/08/01 12:22:45;;;;;;;;;;;24.50;83.00;;;;;;5047710;28;19967;-63
2022/08/01 12:25:11;;;;;;;;;;;24.40;84.00;;;;;;5046588;28;20368;-63
2022/08/01 12:27:38;;;;;;;;;;;24.40;82.00;;;;;;5047006;28;20487;-63
2022/08/01 12:30:07;;;;;;;;;;;24.70;80.90;;;;;;5015910;28;20327;-63
2022/08/01 12:32:36;;;;;;;;;;;24.80;81.30;;;;;;5031506;28;20340;-63
2022/08/01 12:35:01;;;;;;;;;;;24.80;82.00;;;;;;5039070;28;19928;-64
2022/08/01 12:37:27;;;;;;;;;;;24.70;80.60;;;;;;5047027;28;19920;-63
2022/08/01 12:39:52;;;;;;;;;;;24.40;79.50;;;;;;5047669;28;20544;-63
2022/08/01 12:42:18;;;;;;;;;;;24.20;79.40;;;;;;5049833;28;19960;-62
2022/08/01 12:44:45;;;;;;;;;;;24.60;79.20;;;;;;5046232;28;20890;-63
2022/08/01 12:47:11;;;;;;;;;;;24.90;77.20;;;;;;5031538;28;19942;-63
2022/08/01 12:49:37;;;;;;;;;;;25.80;78.80;;;;;;5047280;28;20038;-63
2022/08/01 12:52:03;;;;;;;;;;;27.00;71.90;;;;;;5050724;28;19917;-62
2022/08/01 12:54:28;;;;;;;;;;;28.40;67.30;;;;;;5047057;28;19920;-64
2022/08/01 12:56:54;;;;;;;;;;;29.70;58.40;;;;;;5031322;28;19927;-63
2022/08/01 12:59:20;;;;;;;;;;;28.90;60.30;;;;;;5027783;28;19921;-63
2022/08/01 13:01:46;;;;;;;;;;;28.00;60.90;;;;;;5028689;28;20004;-64
2022/08/01 13:04:12;;;;;;;;;;;27.00;59.10;;;;;;5025221;28;20275;-63
2022/08/01 13:06:37;;;;;;;;;;;27.70;63.00;;;;;;5025242;28;19920;-63
2022/08/01 13:09:06;;;;;;;;;;;29.20;63.00;;;;;;5028957;28;19917;-63
2022/08/01 13:11:32;;;;;;;;;;;30.00;57.90;;;;;;5030790;28;20260;-63
2022/08/01 13:13:58;;;;;;;;;;;31.40;58.30;;;;;;5027018;28;19917;-62
2022/08/01 13:16:24;;;;;;;;;;;32.50;50.90;;;;;;5027080;28;19936;-63
2022/08/01 13:18:50;;;;;;;;;;;30.80;48.80;;;;;;5021671;28;19926;-63
2022/08/01 13:21:16;;;;;;;;;;;32.30;51.00;;;;;;5030488;28;19917;-62
2022/08/01 13:24:01;;;;;;;;;;;33.10;47.00;;;;;;5032435;28;19928;-63
2022/08/01 13:26:40;;;;;;;;;;;34.20;47.70;;;;;;5012872;28;20357;-61
2022/08/01 13:29:07;;;;;;;;;;;34.50;44.20;;;;;;5030438;28;19976;-62
2022/08/01 13:31:33;;;;;;;;;;;35.20;47.90;;;;;;5027623;28;19956;-61
2022/08/01 13:33:58;;;;;;;;;;;35.70;46.70;;;;;;5027978;28;19957;-61
2022/08/01 13:36:26;;;;;;;;;;;35.70;44.70;;;;;;5029961;28;19963;-61
2022/08/01 13:41:36;;;;;;;;;;;36.30;43.30;;;;;;5032846;28;20296;-61
2022/08/01 13:44:02;;;;;;;;;;;36.70;42.60;;;;;;5030986;28;19943;-63
2022/08/01 13:46:28;;;;;;;;;;;37.20;40.70;;;;;;5029488;28;20004;-62
2022/08/01 13:48:53;;;;;;;;;;;36.90;41.00;;;;;;5028400;28;19978;-62
2022/08/01 13:51:18;;;;;;;;;;;36.60;40.20;;;;;;5033171;28;19923;-62
2022/08/01 13:53:44;;;;;;;;;;;37.00;37.00;;;;;;5030493;28;19942;-62
2022/08/01 13:56:10;;;;;;;;;;;35.60;40.70;;;;;;5028432;28;19921;-62
2022/08/01 13:58:36;;;;;;;;;;;34.80;42.20;;;;;;5030664;28;20388;-61
2022/08/01 14:01:02;;;;;;;;;;;35.30;43.60;;;;;;5053958;28;19925;-61
2022/08/01 14:03:27;;;;;;;;;;;34.70;34.90;;;;;;5047666;28;19917;-63
2022/08/01 14:05:53;;;;;;;;;;;33.70;40.60;;;;;;5051508;28;20007;-61
2022/08/01 14:08:18;;;;;;;;;;;34.30;41.20;;;;;;5051649;28;19942;-61
2022/08/01 14:10:44;;;;;;;;;;;34.40;38.50;;;;;;5053806;28;19924;-61
2022/08/01 14:13:09;;;;;;;;;;;33.90;39.90;;;;;;5051263;28;19970;-62
2022/08/01 14:15:35;;;;;;;;;;;33.00;43.20;;;;;;5051303;28;19917;-61
2022/08/01 14:18:01;;;;;;;;;;;32.60;42.90;;;;;;5051072;28;21001;-60
2022/08/01 14:20:26;;;;;;;;;;;31.60;44.70;;;;;;5032111;28;19920;-62
2022/08/01 14:22:52;;;;;;;;;;;31.20;45.30;;;;;;5031625;28;19921;-61